Time;durP1;ratioP1;P1;durP2;ratioP2;P2;SDS_P1;SDS_P2;PMS_P1;PMS_P2;Temp;Humidity;BMP_temperature;BMP_pressure;BME280_temperature;BME280_humidity;BME280_pressure;Samples;Min_cycle;Max_cycle;Signal;HPM_P1;HPM_P2
2023/05/29 00:02:13;;;;;;;12.20;6.50;;;;;;;7.38;67.68;100132.31;218319;1257;139529;-74
2023/05/29 00:07:16;;;;;;;16.50;6.70;;;;;;;7.28;68.17;100128.49;218804;1254;140120;-76
2023/05/29 00:12:20;;;;;;;16.30;8.70;;;;;;;7.21;68.41;100129.47;218185;1257;139925;-76
2023/05/29 00:17:23;;;;;;;25.20;7.70;;;;;;;7.19;68.51;100122.69;218678;1258;140033;-78
2023/05/29 00:22:27;;;;;;;12.10;8.40;;;;;;;7.15;68.49;100123.25;219322;1257;139998;-77
2023/05/29 00:27:32;;;;;;;11.60;6.50;;;;;;;7.14;68.73;100124.73;218141;1256;140931;-72
2023/05/29 00:32:36;;;;;;;18.10;7.50;;;;;;;7.09;68.83;100125.16;218527;1254;140041;-74
2023/05/29 00:37:39;;;;;;;12.80;7.10;;;;;;;6.98;68.86;100119.75;218101;1259;140841;-77
2023/05/29 00:42:42;;;;;;;11.50;7.50;;;;;;;6.87;69.02;100126.69;218479;1256;139473;-73
2023/05/29 00:47:46;;;;;;;10.00;7.70;;;;;;;6.83;69.21;100122.80;218745;1255;140044;-80
2023/05/29 00:52:51;;;;;;;13.10;7.20;;;;;;;6.79;69.15;100121.40;218159;1257;140780;-75
2023/05/29 00:57:55;;;;;;;24.60;8.60;;;;;;;6.75;69.22;100124.01;219050;1257;142426;-70
2023/05/29 01:03:02;;;;;;;22.50;8.80;;;;;;;6.70;69.53;100115.21;218870;1255;139832;-71
2023/05/29 01:08:07;;;;;;;13.60;8.00;;;;;;;6.69;69.97;100118.84;218162;1254;139983;-67
2023/05/29 01:13:23;;;;;;;11.40;6.80;;;;;;;6.70;69.87;100123.98;220951;1254;140516;-69
2023/05/29 01:18:50;;;;;;;14.00;8.10;;;;;;;6.64;69.96;100119.84;220406;1254;140457;-69
2023/05/29 01:24:15;;;;;;;15.70;8.50;;;;;;;6.58;69.77;100116.84;220747;1254;140457;-68
2023/05/29 01:29:22;;;;;;;14.10;7.50;;;;;;;6.50;69.84;100117.16;220622;1256;140640;-73
2023/05/29 01:34:25;;;;;;;19.40;8.80;;;;;;;6.45;70.23;100115.07;219952;1256;140105;-68
2023/05/29 01:39:31;;;;;;;10.10;7.30;;;;;;;6.45;70.25;100116.21;219263;1255;141785;-68
2023/05/29 01:44:35;;;;;;;15.00;11.50;;;;;;;6.43;70.35;100119.17;219316;1257;140688;-67
2023/05/29 01:49:41;;;;;;;17.20;7.70;;;;;;;6.45;70.40;100117.80;219329;1255;141992;-67
2023/05/29 01:54:46;;;;;;;13.20;7.20;;;;;;;6.39;70.33;100113.77;218145;1259;140356;-68
2023/05/29 01:59:49;;;;;;;10.20;6.80;;;;;;;6.29;70.07;100108.17;218854;1254;140322;-68
2023/05/29 02:04:53;;;;;;;11.30;8.70;;;;;;;6.19;70.59;100109.67;218535;1254;140348;-68
2023/05/29 02:09:57;;;;;;;11.50;7.60;;;;;;;6.11;70.62;100105.78;218204;1254;139678;-71
2023/05/29 02:15:01;;;;;;;14.90;6.70;;;;;;;6.03;71.12;100096.72;218201;1257;140083;-78
2023/05/29 02:20:04;;;;;;;13.00;6.50;;;;;;;6.00;71.28;100099.91;218443;1254;236728;-73
2023/05/29 02:25:07;;;;;;;10.60;6.60;;;;;;;5.93;71.09;100099.61;218090;1255;140905;-69
2023/05/29 02:30:11;;;;;;;19.30;8.90;;;;;;;5.89;71.52;100102.02;218581;1257;140019;-70
2023/05/29 02:35:17;;;;;;;9.50;6.20;;;;;;;5.88;71.46;100102.59;218279;1258;140945;-69
2023/05/29 02:40:20;;;;;;;17.50;7.90;;;;;;;5.84;71.59;100094.16;218671;1258;140438;-70
2023/05/29 02:45:23;;;;;;;19.70;7.90;;;;;;;5.84;71.65;100094.77;218214;1255;141112;-71
2023/05/29 02:50:27;;;;;;;13.80;7.20;;;;;;;5.83;71.31;100088.86;220034;1255;141062;-71
2023/05/29 02:55:32;;;;;;;16.70;7.90;;;;;;;5.79;71.92;100097.33;218686;1254;140783;-68
2023/05/29 03:00:36;;;;;;;12.70;7.10;;;;;;;5.82;72.13;100098.91;219247;1254;140752;-78
2023/05/29 03:05:41;;;;;;;10.10;5.90;;;;;;;5.89;71.95;100105.61;218951;1256;139887;-72
2023/05/29 03:10:44;;;;;;;11.80;5.20;;;;;;;5.90;72.27;100103.27;220084;1254;141697;-73
2023/05/29 03:15:47;;;;;;;13.20;6.90;;;;;;;5.92;72.28;100106.54;220750;1256;140421;-75
2023/05/29 03:20:51;;;;;;;9.90;6.00;;;;;;;5.97;72.35;100108.93;218197;1254;139957;-70
2023/05/29 03:25:55;;;;;;;11.60;6.90;;;;;;;6.08;72.74;100107.85;219338;1258;141648;-70
2023/05/29 03:30:59;;;;;;;13.60;7.30;;;;;;;6.20;72.67;100112.29;219652;1255;141486;-71
2023/05/29 03:36:05;;;;;;;14.30;6.90;;;;;;;6.39;73.20;100120.48;217965;1254;140075;-71
2023/05/29 03:41:09;;;;;;;11.40;6.00;;;;;;;6.59;73.21;100119.65;219126;1258;140855;-72
2023/05/29 03:46:13;;;;;;;11.90;7.50;;;;;;;6.75;73.12;100128.48;218113;1257;139967;-69
2023/05/29 03:51:16;;;;;;;14.80;8.60;;;;;;;6.94;73.39;100128.45;217836;1257;140693;-72
2023/05/29 03:56:19;;;;;;;8.20;6.20;;;;;;;7.34;73.25;100131.43;219006;1256;140344;-70
2023/05/29 04:01:22;;;;;;;11.00;8.00;;;;;;;7.75;73.31;100130.99;218508;1257;140488;-73
2023/05/29 04:06:25;;;;;;;13.50;7.90;;;;;;;8.04;73.17;100135.70;219223;1254;140094;-69
2023/05/29 04:11:34;;;;;;;14.30;7.70;;;;;;;8.36;72.91;100133.62;218533;1254;140632;-68
2023/05/29 04:16:38;;;;;;;7.50;6.60;;;;;;;8.75;72.44;100130.05;218031;1257;140557;-72
2023/05/29 04:21:41;;;;;;;17.30;7.90;;;;;;;9.99;71.55;100127.79;218156;1257;140112;-72
2023/05/29 04:26:44;;;;;;;9.10;6.50;;;;;;;11.38;70.15;100127.80;217773;1257;141022;-70
2023/05/29 04:31:47;;;;;;;11.00;7.20;;;;;;;11.79;69.75;100129.81;218810;1257;140746;-78
2023/05/29 04:36:49;;;;;;;13.70;6.10;;;;;;;12.52;68.94;100128.36;218975;1255;140425;-84
2023/05/29 04:41:53;;;;;;;11.60;6.30;;;;;;;13.55;67.68;100127.24;217952;1255;140868;-85
2023/05/29 04:47:02;;;;;;;17.90;7.90;;;;;;;13.81;66.97;100122.20;218916;1255;142057;-80
2023/05/29 04:52:06;;;;;;;20.70;8.50;;;;;;;14.47;65.97;100124.60;217809;1259;141805;-76
2023/05/29 04:57:12;;;;;;;24.00;10.20;;;;;;;14.72;65.40;100124.08;218611;1259;139665;-77
2023/05/29 05:02:17;;;;;;;20.70;7.80;;;;;;;15.23;64.62;100123.78;218428;1254;140031;-79
2023/05/29 05:07:21;;;;;;;18.80;7.60;;;;;;;17.48;62.48;100117.95;220019;1255;142288;-79
2023/05/29 05:12:24;;;;;;;24.50;8.70;;;;;;;19.13;60.39;100113.20;220851;1254;139362;-79
2023/05/29 05:17:28;;;;;;;25.00;7.60;;;;;;;21.29;57.60;100117.02;219582;1254;229147;-76
2023/05/29 05:22:31;;;;;;;14.20;7.00;;;;;;;24.44;53.84;100116.51;218522;1257;140407;-73
2023/05/29 05:27:34;;;;;;;10.50;6.90;;;;;;;26.85;50.01;100119.27;218541;1254;140191;-77
2023/05/29 05:32:38;;;;;;;12.50;7.40;;;;;;;28.71;46.78;100124.16;218485;1257;139642;-83
2023/05/29 05:37:41;;;;;;;7.50;4.90;;;;;;;30.37;43.52;100126.70;218080;1255;139432;-80
2023/05/29 05:42:45;;;;;;;8.80;4.10;;;;;;;31.85;40.79;100131.24;219330;1258;140226;-80
2023/05/29 05:47:49;;;;;;;6.10;3.90;;;;;;;33.12;38.14;100131.88;217837;1259;139148;-79
2023/05/29 05:52:53;;;;;;;8.40;2.50;;;;;;;34.23;36.24;100132.95;218203;1257;139092;-76
2023/05/29 05:57:57;;;;;;;3.90;3.00;;;;;;;35.51;34.41;100138.05;218194;1257;139556;-71
2023/05/29 06:03:02;;;;;;;7.50;3.30;;;;;;;36.57;32.79;100133.84;218133;1259;139663;-72
2023/05/29 06:08:08;;;;;;;4.30;2.00;;;;;;;37.27;30.86;100134.00;218449;1258;140359;-72
2023/05/29 06:13:12;;;;;;;2.10;1.60;;;;;;;37.84;29.49;100138.24;217441;1258;139968;-71
2023/05/29 06:18:15;;;;;;;3.00;1.80;;;;;;;38.14;27.41;100137.92;218377;1260;139842;-70
2023/05/29 06:23:18;;;;;;;3.00;1.90;;;;;;;38.24;26.68;100136.23;217908;1255;139794;-71
2023/05/29 06:28:21;;;;;;;3.20;1.60;;;;;;;38.51;25.78;100132.32;217693;1260;141183;-71
2023/05/29 06:33:24;;;;;;;2.30;1.20;;;;;;;38.48;25.19;100132.03;218455;1255;140666;-72
2023/05/29 06:38:26;;;;;;;4.00;1.60;;;;;;;38.15;24.52;100139.10;218444;1254;139536;-70
2023/05/29 06:43:29;;;;;;;2.00;1.80;;;;;;;37.72;24.40;100140.56;218332;1259;139412;-71
2023/05/29 06:48:36;;;;;;;6.90;1.40;;;;;;;37.27;24.17;100141.00;218098;1254;140252;-72
2023/05/29 06:53:39;;;;;;;3.00;1.90;;;;;;;37.30;24.24;100147.27;217701;1258;139712;-71
2023/05/29 06:58:42;;;;;;;3.80;1.40;;;;;;;37.08;23.86;100142.02;219029;1259;140967;-72
2023/05/29 07:03:44;;;;;;;5.70;1.30;;;;;;;37.03;23.75;100142.28;217845;1257;139866;-70
2023/05/29 07:08:47;;;;;;;3.20;1.40;;;;;;;36.96;23.61;100147.08;218789;1254;139810;-68
2023/05/29 07:13:50;;;;;;;0.70;0.70;;;;;;;37.17;23.76;100151.29;220353;1256;151303;-69
2023/05/29 07:18:52;;;;;;;;;;;;;;;36.98;23.17;100152.05;220471;1254;140451;-67
2023/05/29 07:23:55;;;;;;;5.60;1.40;;;;;;;36.10;23.50;100146.12;219179;1254;126621;-69
2023/05/29 07:28:57;;;;;;;5.40;1.50;;;;;;;35.54;23.62;100147.01;219153;1254;139612;-68
2023/05/29 07:33:59;;;;;;;19.00;1.90;;;;;;;34.78;24.05;100149.41;220111;1254;140047;-70
2023/05/29 07:39:05;;;;;;;1.10;1.00;;;;;;;34.20;24.66;100150.21;218694;1254;139733;-70
2023/05/29 07:44:07;;;;;;;2.10;1.10;;;;;;;33.55;24.73;100151.25;218553;1254;139601;-76
2023/05/29 07:49:09;;;;;;;1.70;1.30;;;;;;;32.98;25.83;100153.90;217976;1254;139990;-70
2023/05/29 07:54:12;;;;;;;5.90;1.60;;;;;;;32.34;25.85;100151.77;217856;1257;138864;-68
2023/05/29 07:59:15;;;;;;;3.20;1.50;;;;;;;31.94;26.38;100152.08;218710;1257;141492;-70
2023/05/29 08:04:17;;;;;;;1.30;0.90;;;;;;;31.33;26.04;100151.00;217839;1256;140728;-71
2023/05/29 08:09:19;;;;;;;1.50;1.30;;;;;;;31.06;26.50;100151.55;217771;1257;139120;-71
2023/05/29 08:14:21;;;;;;;5.10;1.60;;;;;;;30.90;26.46;100153.16;217992;1254;139009;-69
2023/05/29 08:19:24;;;;;;;3.00;2.00;;;;;;;30.78;26.68;100151.27;218338;1254;139476;-69
2023/05/29 08:24:27;;;;;;;3.50;1.70;;;;;;;30.49;27.06;100153.66;218675;1254;139656;-68
2023/05/29 08:29:30;;;;;;;1.90;1.40;;;;;;;29.81;27.25;100152.77;218483;1254;139700;-68
2023/05/29 08:34:33;;;;;;;3.80;1.90;;;;;;;29.68;27.43;100157.99;218917;1254;139511;-68
2023/05/29 08:39:36;;;;;;;5.20;2.00;;;;;;;29.46;27.76;100152.84;218944;1254;139730;-69
2023/05/29 08:44:40;;;;;;;3.50;1.70;;;;;;;29.27;27.80;100153.16;220790;1254;140105;-73
2023/05/29 08:49:43;;;;;;;2.50;1.70;;;;;;;29.15;27.97;100152.28;218928;1259;141238;-71
2023/05/29 08:54:46;;;;;;;2.80;1.40;;;;;;;28.97;28.13;100150.21;219825;1254;139250;-68
2023/05/29 08:59:52;;;;;;;2.90;1.80;;;;;;;28.82;27.91;100146.20;219858;1257;140273;-69
2023/05/29 09:04:56;;;;;;;3.60;2.30;;;;;;;28.65;28.35;100142.96;218087;1259;139927;-68
2023/05/29 09:15:59;;;;;;;2.90;1.40;;;;;;;28.66;28.23;100137.89;220561;1253;141600;-68
2023/05/29 09:21:08;;;;;;;2.70;1.40;;;;;;;28.49;28.11;100140.02;219951;1254;140073;-67
2023/05/29 09:26:14;;;;;;;4.60;1.70;;;;;;;28.34;28.06;100134.88;217984;1257;139666;-68
2023/05/29 09:31:21;;;;;;;5.10;1.40;;;;;;;28.18;28.12;100136.05;217560;1255;140322;-70
2023/05/29 09:36:24;;;;;;;1.60;1.30;;;;;;;27.72;28.04;100136.93;218154;1253;139861;-71
2023/05/29 09:41:27;;;;;;;3.90;1.20;;;;;;;27.60;28.47;100132.62;217781;1257;139279;-69
2023/05/29 09:46:34;;;;;;;2.00;1.80;;;;;;;27.67;28.34;100136.15;218125;1254;140357;-67
2023/05/29 09:51:38;;;;;;;2.00;1.50;;;;;;;27.79;28.48;100135.70;218902;1254;139530;-74
2023/05/29 09:56:43;;;;;;;2.90;1.90;;;;;;;27.81;28.21;100132.48;217123;1254;408369;-68
2023/05/29 10:01:46;;;;;;;3.70;1.60;;;;;;;27.84;28.50;100134.21;220107;1255;139068;-72
2023/05/29 10:06:52;;;;;;;2.30;2.00;;;;;;;27.86;28.01;100135.55;217509;1254;139922;-72
2023/05/29 10:11:57;;;;;;;3.10;1.70;;;;;;;27.86;28.17;100136.23;219077;1253;139700;-72
2023/05/29 10:17:06;;;;;;;2.00;1.80;;;;;;;27.86;28.32;100130.77;217760;1254;140113;-72
2023/05/29 10:22:10;;;;;;;2.20;1.30;;;;;;;27.70;28.25;100122.71;217721;1259;140486;-72
2023/05/29 10:27:13;;;;;;;2.00;1.60;;;;;;;27.38;28.52;100120.97;217652;1254;140955;-72
2023/05/29 10:32:22;;;;;;;6.80;1.70;;;;;;;27.35;28.82;100119.98;217479;1254;139347;-72
2023/05/29 10:37:40;;;;;;;2.30;1.90;;;;;;;27.56;28.60;100113.42;217603;1254;139089;-73
2023/05/29 10:42:47;;;;;;;6.00;2.00;;;;;;;27.61;28.08;100114.02;217721;1254;139102;-71
2023/05/29 10:47:53;;;;;;;2.20;1.60;;;;;;;27.51;28.07;100110.63;218253;1254;140384;-74
2023/05/29 10:52:56;;;;;;;1.40;1.20;;;;;;;27.51;27.29;100112.73;218892;1254;140125;-71
2023/05/29 10:58:04;;;;;;;9.00;2.10;;;;;;;27.53;26.78;100103.92;220769;1253;139503;-72
2023/05/29 11:03:10;;;;;;;3.90;2.10;;;;;;;27.47;26.72;100101.17;219854;1254;141018;-72
2023/05/29 11:08:13;;;;;;;3.30;2.60;;;;;;;27.26;27.00;100102.08;220777;1254;140228;-71
2023/05/29 11:13:36;;;;;;;3.30;2.00;;;;;;;26.79;27.67;100099.64;220762;1254;138724;-73
2023/05/29 11:18:47;;;;;;;4.90;2.30;;;;;;;26.64;27.62;100097.58;219336;1256;139927;-72
2023/05/29 11:23:52;;;;;;;12.60;2.30;;;;;;;26.85;27.89;100088.63;217849;1253;140699;-71
2023/05/29 11:28:58;;;;;;;;;;;;;;;27.11;28.24;100084.95;219194;1254;140664;-72
2023/05/29 11:34:04;;;;;;;2.70;2.50;;;;;;;27.03;28.46;100087.88;219509;1254;127218;-71
2023/05/29 11:39:10;;;;;;;1.80;1.70;;;;;;;27.15;28.38;100092.86;217879;1254;140358;-71
2023/05/29 11:44:14;;;;;;;3.20;2.10;;;;;;;27.34;27.86;100092.89;218745;1253;139645;-72
2023/05/29 11:49:28;;;;;;;3.00;2.20;;;;;;;27.43;27.78;100097.05;218147;1253;139403;-71
2023/05/29 11:54:32;;;;;;;5.50;2.10;;;;;;;27.37;27.82;100091.04;219008;1253;140005;-72
2023/05/29 11:59:35;;;;;;;3.30;2.30;;;;;;;27.27;28.39;100082.40;218101;1256;139985;-72
2023/05/29 12:04:37;;;;;;;2.30;2.10;;;;;;;27.41;28.03;100083.04;218294;1256;139121;-73
2023/05/29 12:09:40;;;;;;;7.10;2.30;;;;;;;27.24;27.82;100078.92;219136;1254;140521;-73
2023/05/29 12:14:43;;;;;;;1.90;1.70;;;;;;;27.06;28.30;100072.12;217645;1257;141655;-72
2023/05/29 12:19:48;;;;;;;3.50;2.00;;;;;;;26.94;27.81;100070.11;218732;1258;139855;-73
2023/05/29 12:24:50;;;;;;;2.30;2.10;;;;;;;26.82;27.49;100059.83;219467;1255;139891;-70
2023/05/29 12:30:01;;;;;;;1.90;1.40;;;;;;;26.70;28.14;100053.58;218398;1254;139911;-72
2023/05/29 12:35:18;;;;;;;2.30;2.10;;;;;;;26.54;28.09;100055.81;218760;1254;141559;-74
2023/05/29 12:40:25;;;;;;;6.90;1.90;;;;;;;26.57;28.56;100060.45;220057;1254;140569;-72
2023/05/29 12:45:30;;;;;;;5.00;2.10;;;;;;;26.80;28.36;100049.45;218558;1254;140171;-73
2023/05/29 12:50:39;;;;;;;2.80;1.80;;;;;;;26.88;27.61;100047.13;220802;1254;139999;-74
2023/05/29 12:55:46;;;;;;;4.00;2.30;;;;;;;26.74;28.15;100044.98;220752;1254;139686;-74
2023/05/29 13:00:56;;;;;;;2.60;2.40;;;;;;;26.57;27.89;100045.21;219140;1254;141503;-75
2023/05/29 13:06:00;;;;;;;2.40;1.90;;;;;;;26.64;28.32;100039.14;219367;1253;141147;-76
2023/05/29 13:11:03;;;;;;;2.30;2.00;;;;;;;26.45;28.49;100037.50;218952;1254;139266;-74
2023/05/29 13:16:06;;;;;;;2.20;2.00;;;;;;;26.45;28.50;100028.50;220301;1253;140052;-74
2023/05/29 13:21:10;;;;;;;1.90;1.70;;;;;;;26.50;28.25;100028.54;218078;1257;139651;-77
2023/05/29 13:26:12;;;;;;;3.80;2.00;;;;;;;26.31;28.59;100029.23;217825;1257;140704;-77
2023/05/29 13:31:15;;;;;;;2.30;2.00;;;;;;;26.13;28.36;100021.42;217532;1254;139002;-74
2023/05/29 13:36:18;;;;;;;7.30;2.30;;;;;;;26.26;28.45;100021.00;218560;1253;140406;-76
2023/05/29 13:41:22;;;;;;;4.30;2.00;;;;;;;26.28;28.75;100016.84;218511;1257;154308;-78
2023/05/29 13:46:26;;;;;;;2.50;2.10;;;;;;;26.29;28.98;100014.68;217853;1254;139655;-75
2023/05/29 13:51:30;;;;;;;6.20;3.20;;;;;;;26.05;29.02;100008.43;218730;1254;140768;-73
2023/05/29 13:56:36;;;;;;;4.70;2.90;;;;;;;25.99;29.19;100005.80;217894;1257;139577;-74
2023/05/29 14:01:39;;;;;;;3.10;2.30;;;;;;;25.67;29.52;99996.71;218596;1254;140173;-75
2023/05/29 14:06:43;;;;;;;5.00;2.50;;;;;;;25.27;29.65;99996.77;219778;1254;139586;-74
2023/05/29 14:11:47;;;;;;;4.50;2.30;;;;;;;25.26;29.87;99998.15;217978;1254;139896;-74
2023/05/29 14:16:51;;;;;;;2.40;2.20;;;;;;;25.46;29.69;99995.05;219122;1255;139285;-77
2023/05/29 14:21:54;;;;;;;5.40;2.30;;;;;;;25.47;29.28;99992.99;217693;1258;139016;-75
2023/05/29 14:26:58;;;;;;;3.00;2.10;;;;;;;25.51;29.13;99991.45;218002;1253;140931;-76
2023/05/29 14:32:01;;;;;;;4.20;2.80;;;;;;;25.55;29.14;99987.95;218635;1254;139492;-71
2023/05/29 14:37:04;;;;;;;5.90;3.10;;;;;;;25.54;29.40;99982.44;218961;1255;139931;-73
2023/05/29 14:42:07;;;;;;;4.50;2.20;;;;;;;25.53;29.17;99980.22;218859;1256;139407;-76
2023/05/29 14:47:11;;;;;;;7.30;2.30;;;;;;;25.53;29.13;99980.84;218563;1254;138693;-75
2023/05/29 14:52:15;;;;;;;8.30;2.70;;;;;;;25.58;29.38;99975.73;220027;1254;139494;-79
2023/05/29 14:57:18;;;;;;;5.20;2.70;;;;;;;25.55;29.44;99976.17;220386;1256;140366;-78
2023/05/29 15:02:22;;;;;;;2.40;2.10;;;;;;;25.52;29.26;99973.23;219370;1256;139211;-75
2023/05/29 15:07:26;;;;;;;5.70;2.50;;;;;;;25.48;29.48;99970.02;219844;1255;139667;-76
2023/05/29 15:12:31;;;;;;;3.50;2.10;;;;;;;25.38;29.33;99966.52;217869;1254;139038;-75
2023/05/29 15:17:46;;;;;;;2.50;2.40;;;;;;;25.29;29.72;99967.02;219095;1255;140445;-74
2023/05/29 15:22:51;;;;;;;2.00;1.90;;;;;;;25.28;29.96;99964.87;220559;1254;141667;-76
2023/05/29 15:27:55;;;;;;;2.70;2.20;;;;;;;25.23;29.79;99965.27;219703;1255;140890;-75
2023/05/29 15:32:58;;;;;;;6.20;2.80;;;;;;;25.08;29.64;99960.20;218872;1257;140479;-75
2023/05/29 15:38:01;;;;;;;2.40;1.90;;;;;;;24.95;29.58;99956.94;218009;1254;139287;-76
2023/05/29 15:43:06;;;;;;;5.00;2.70;;;;;;;24.74;29.56;99954.84;218450;1254;139273;-75
2023/05/29 15:48:10;;;;;;;2.90;2.00;;;;;;;24.49;29.32;99958.95;217915;1254;139515;-74
2023/05/29 15:53:15;;;;;;;6.40;2.80;;;;;;;24.24;29.83;99960.20;218673;1254;139870;-76
2023/05/29 15:58:22;;;;;;;3.10;2.80;;;;;;;24.12;30.05;99961.85;219264;1256;139193;-76
2023/05/29 16:03:27;;;;;;;4.60;2.40;;;;;;;23.97;30.17;99963.95;217888;1258;139758;-76
2023/05/29 16:08:32;;;;;;;4.10;2.10;;;;;;;23.83;30.41;99967.26;218791;1256;139503;-76
2023/05/29 16:13:36;;;;;;;3.10;2.60;;;;;;;23.64;30.98;99965.57;218903;1254;139540;-78
2023/05/29 16:18:42;;;;;;;4.10;2.00;;;;;;;23.50;31.42;99963.41;219289;1255;139437;-75
2023/05/29 16:23:48;;;;;;;11.60;2.20;;;;;;;23.41;31.59;99964.60;217511;1259;139044;-75
2023/05/29 16:28:51;;;;;;;3.80;3.00;;;;;;;23.35;31.83;99964.29;219230;1256;140896;-76
2023/05/29 16:33:54;;;;;;;5.30;3.00;;;;;;;23.22;32.20;99965.73;218506;1256;140502;-76
2023/05/29 16:38:58;;;;;;;2.60;2.10;;;;;;;23.15;32.47;99965.55;219403;1254;139322;-76
2023/05/29 16:44:03;;;;;;;4.80;2.50;;;;;;;23.09;33.01;99970.27;220676;1256;140398;-77
2023/05/29 16:49:07;;;;;;;3.50;2.80;;;;;;;22.95;33.30;99972.48;220609;1255;140595;-76
2023/05/29 16:54:11;;;;;;;4.90;3.30;;;;;;;22.83;33.70;99974.41;220570;1254;139267;-77
2023/05/29 16:59:17;;;;;;;4.30;2.80;;;;;;;22.70;34.16;99975.18;219558;1254;140208;-77
2023/05/29 17:04:23;;;;;;;5.30;2.60;;;;;;;22.58;34.26;99975.16;219319;1254;139308;-70
2023/05/29 17:09:33;;;;;;;7.00;3.00;;;;;;;22.48;34.57;99976.77;219530;1254;139067;-76
2023/05/29 17:14:40;;;;;;;6.60;3.50;;;;;;;22.38;34.97;99984.42;217702;1257;140379;-77
2023/05/29 17:19:47;;;;;;;6.30;3.30;;;;;;;22.23;35.36;99988.81;218765;1255;138947;-76
2023/05/29 17:24:50;;;;;;;3.80;3.00;;;;;;;22.04;35.69;99991.05;217481;1258;140253;-75
2023/05/29 17:29:54;;;;;;;5.00;3.30;;;;;;;21.79;35.98;99993.92;218393;1256;139621;-75
2023/05/29 17:34:59;;;;;;;5.30;3.70;;;;;;;21.56;36.41;100004.27;218663;1255;139289;-75
2023/05/29 17:40:03;;;;;;;5.10;3.20;;;;;;;21.37;36.93;99997.86;218484;1254;139438;-74
2023/05/29 17:45:08;;;;;;;4.30;3.50;;;;;;;21.23;37.42;99998.05;219227;1254;140115;-76
2023/05/29 17:50:12;;;;;;;6.40;3.80;;;;;;;21.07;37.66;99997.49;218237;1254;139331;-76
2023/05/29 17:55:16;;;;;;;4.10;3.00;;;;;;;20.94;38.11;100000.11;218851;1257;139198;-75
2023/05/29 18:00:19;;;;;;;4.80;3.60;;;;;;;20.82;38.59;100010.92;217833;1258;140422;-73
2023/05/29 18:05:23;;;;;;;4.80;3.60;;;;;;;20.68;38.86;100014.83;217903;1256;150467;-78
2023/05/29 18:10:28;;;;;;;4.80;3.00;;;;;;;20.52;39.24;100017.18;218751;1255;140380;-76
2023/05/29 18:15:31;;;;;;;15.30;3.80;;;;;;;20.37;39.87;100019.45;219665;1254;138944;-77
2023/05/29 18:20:34;;;;;;;9.30;3.80;;;;;;;20.24;39.99;100020.36;219486;1257;139952;-78
2023/05/29 18:25:38;;;;;;;20.70;3.80;;;;;;;20.12;40.46;100020.77;219993;1254;139761;-77
2023/05/29 18:30:45;;;;;;;10.10;3.90;;;;;;;19.99;40.66;100022.48;218157;1256;139295;-74
2023/05/29 18:35:53;;;;;;;13.50;3.40;;;;;;;19.88;40.98;100026.79;219176;1257;139866;-78
2023/05/29 18:40:57;;;;;;;6.20;4.00;;;;;;;19.77;41.20;100030.11;220412;1255;141242;-76
2023/05/29 18:46:02;;;;;;;5.90;3.90;;;;;;;19.65;41.55;100035.27;220560;1254;139890;-75
2023/05/29 18:51:06;;;;;;;4.40;3.60;;;;;;;19.51;41.68;100032.55;220669;1255;140329;-76
2023/05/29 18:56:10;;;;;;;4.60;4.00;;;;;;;19.41;42.15;100038.52;219697;1254;139729;-72
2023/05/29 19:01:15;;;;;;;9.90;3.10;;;;;;;19.28;42.65;100045.08;218198;1257;138967;-75
2023/05/29 19:06:36;;;;;;;10.70;3.70;;;;;;;19.08;43.19;100043.63;219743;1256;140864;-74
2023/05/29 19:11:40;;;;;;;8.20;3.80;;;;;;;18.90;43.99;100046.05;218873;1257;139526;-75
2023/05/29 19:16:45;;;;;;;10.10;4.00;;;;;;;18.73;44.83;100048.39;218131;1257;139369;-74
2023/05/29 19:21:51;;;;;;;4.90;3.60;;;;;;;18.53;45.60;100049.79;219144;1258;142405;-75
2023/05/29 19:26:56;;;;;;;6.20;3.90;;;;;;;18.38;46.07;100055.69;218814;1258;140529;-74
2023/05/29 19:32:00;;;;;;;6.40;4.00;;;;;;;18.25;46.90;100054.10;217893;1254;140340;-74
2023/05/29 19:37:05;;;;;;;5.00;3.70;;;;;;;18.12;47.65;100054.90;219758;1258;140517;-74
2023/05/29 19:42:09;;;;;;;5.40;3.20;;;;;;;18.00;48.38;100056.09;218021;1258;139047;-85
2023/05/29 19:47:14;;;;;;;8.50;4.50;;;;;;;17.85;48.89;100061.76;218362;1258;139802;-78
2023/05/29 19:52:18;;;;;;;4.80;3.50;;;;;;;17.73;49.71;100067.39;218651;1254;140529;-70
2023/05/29 19:57:22;;;;;;;6.70;4.10;;;;;;;17.60;50.39;100068.70;218808;1254;139203;-79
2023/05/29 20:02:32;;;;;;;10.70;3.90;;;;;;;17.50;51.20;100068.70;218408;1256;139886;-86
2023/05/29 20:07:38;;;;;;;4.60;3.60;;;;;;;17.38;51.40;100071.70;218174;1254;141089;-76
2023/05/29 20:12:45;;;;;;;4.10;2.70;;;;;;;17.27;51.96;100075.15;217761;1254;139968;-72
2023/05/29 20:17:49;;;;;;;5.00;3.60;;;;;;;17.05;52.33;100073.27;218149;1254;139226;-75
2023/05/29 20:22:55;;;;;;;6.00;4.20;;;;;;;16.90;52.75;100077.67;217891;1258;141376;-74
2023/05/29 20:28:01;;;;;;;4.60;3.60;;;;;;;16.66;53.08;100076.65;218898;1257;139753;-72
2023/05/29 20:33:08;;;;;;;9.70;4.50;;;;;;;16.51;53.93;100082.41;218093;1258;140617;-70
2023/05/29 20:38:13;;;;;;;9.60;4.30;;;;;;;16.49;54.62;100084.25;219554;1254;139664;-68
2023/05/29 20:43:22;;;;;;;6.50;4.90;;;;;;;16.46;55.23;100084.02;219825;1254;139457;-71
2023/05/29 20:48:27;;;;;;;5.20;3.60;;;;;;;16.41;55.26;100081.74;218694;1258;140768;-73
2023/05/29 20:53:35;;;;;;;6.90;4.00;;;;;;;16.37;55.32;100081.89;220276;1254;140104;-69
2023/05/29 20:58:41;;;;;;;4.40;3.20;;;;;;;16.36;55.66;100086.41;220852;1256;139218;-73
2023/05/29 21:03:46;;;;;;;5.80;4.40;;;;;;;16.34;55.75;100086.56;220787;1258;139868;-72
2023/05/29 21:08:53;;;;;;;10.30;4.60;;;;;;;16.30;55.83;100091.27;220699;1257;139400;-72
2023/05/29 21:13:56;;;;;;;10.10;4.30;;;;;;;16.25;56.11;100092.81;219168;1254;139503;-70
2023/05/29 21:18:59;;;;;;;9.00;4.40;;;;;;;16.21;56.30;100091.73;218514;1257;141708;-77
2023/05/29 21:24:10;;;;;;;4.80;4.10;;;;;;;16.12;56.68;100088.03;219403;1257;140077;-70
2023/05/29 21:29:16;;;;;;;8.60;4.50;;;;;;;16.02;57.22;100086.96;218958;1254;140233;-66
2023/05/29 21:34:21;;;;;;;5.80;4.60;;;;;;;15.98;57.42;100093.12;218141;1256;140249;-67
2023/05/29 21:39:24;;;;;;;5.30;4.20;;;;;;;15.91;57.55;100084.86;218386;1259;139504;-70
2023/05/29 21:44:30;;;;;;;5.40;4.10;;;;;;;15.78;57.48;100083.09;218791;1259;139441;-70
2023/05/29 21:49:35;;;;;;;5.70;4.00;;;;;;;15.68;57.57;100087.48;217911;1256;139515;-69
2023/05/29 21:54:38;;;;;;;6.60;4.90;;;;;;;15.61;57.82;100093.58;218297;1259;484318;-75
2023/05/29 21:59:41;;;;;;;4.70;3.80;;;;;;;15.54;58.25;100093.08;218153;1254;231029;-75
2023/05/29 22:04:48;;;;;;;11.20;4.90;;;;;;;15.48;58.17;100093.02;218468;1257;139950;-72
2023/05/29 22:09:52;;;;;;;4.60;4.10;;;;;;;15.41;58.29;100095.21;217790;1259;162205;-72
2023/05/29 22:14:55;;;;;;;5.10;4.40;;;;;;;15.36;58.48;100092.76;218774;1257;140499;-75
2023/05/29 22:19:59;;;;;;;8.20;4.20;;;;;;;15.29;58.54;100096.90;218809;1257;139621;-73
2023/05/29 22:25:04;;;;;;;9.50;4.80;;;;;;;15.23;58.47;100096.16;218427;1254;139913;-72
2023/05/29 22:30:08;;;;;;;8.90;4.00;;;;;;;15.21;58.27;100098.45;218698;1258;139129;-69
2023/05/29 22:35:12;;;;;;;14.90;4.80;;;;;;;15.20;58.00;100098.77;217932;1259;139321;-72
2023/05/29 22:40:17;;;;;;;5.30;3.50;;;;;;;15.16;58.00;100098.69;219339;1259;140190;-74
2023/05/29 22:45:23;;;;;;;6.90;3.70;;;;;;;15.12;57.73;100100.09;218977;1259;138928;-71
2023/05/29 22:50:27;;;;;;;7.00;3.90;;;;;;;15.08;57.59;100096.41;219848;1259;141046;-71
2023/05/29 22:55:31;;;;;;;4.20;3.20;;;;;;;15.03;57.54;100094.37;220305;1259;139278;-75
2023/05/29 23:00:35;;;;;;;6.30;3.80;;;;;;;14.98;57.40;100090.90;219315;1255;140183;-75
2023/05/29 23:05:38;;;;;;;8.80;4.40;;;;;;;14.91;57.57;100089.98;219949;1256;139001;-73
2023/05/29 23:10:41;;;;;;;7.30;3.00;;;;;;;14.82;57.56;100089.09;219727;1258;139354;-75